sensor_id;sensor_type;location;lat;lon;timestamp;P1;durP1;ratioP1;P2;durP2;ratioP2
18316;SDS011;9284;52.298;21.164;2022-12-20T00:01:57;55.73;;;20.13;;
18316;SDS011;9284;52.298;21.164;2022-12-20T00:04:26;46.27;;;19.03;;
18316;SDS011;9284;52.298;21.164;2022-12-20T00:06:56;42.87;;;18.70;;
18316;SDS011;9284;52.298;21.164;2022-12-20T00:09:25;51.50;;;18.67;;
18316;SDS011;9284;52.298;21.164;2022-12-20T00:11:55;45.83;;;18.50;;
18316;SDS011;9284;52.298;21.164;2022-12-20T00:14:25;49.83;;;16.90;;
18316;SDS011;9284;52.298;21.164;2022-12-20T00:16:53;55.53;;;18.30;;
18316;SDS011;9284;52.298;21.164;2022-12-20T00:19:21;51.33;;;19.43;;
18316;SDS011;9284;52.298;21.164;2022-12-20T00:21:50;43.37;;;16.83;;
18316;SDS011;9284;52.298;21.164;2022-12-20T00:24:19;49.57;;;17.77;;
18316;SDS011;9284;52.298;21.164;2022-12-20T00:26:52;42.67;;;18.27;;
18316;SDS011;9284;52.298;21.164;2022-12-20T00:29:20;47.10;;;17.57;;
18316;SDS011;9284;52.298;21.164;2022-12-20T00:31:54;44.53;;;15.93;;
18316;SDS011;9284;52.298;21.164;2022-12-20T00:34:23;41.37;;;17.27;;
18316;SDS011;9284;52.298;21.164;2022-12-20T00:36:51;47.10;;;18.00;;
18316;SDS011;9284;52.298;21.164;2022-12-20T00:39:19;47.60;;;18.53;;
18316;SDS011;9284;52.298;21.164;2022-12-20T00:41:48;51.00;;;18.93;;
18316;SDS011;9284;52.298;21.164;2022-12-20T00:44:16;52.57;;;18.73;;
18316;SDS011;9284;52.298;21.164;2022-12-20T00:46:44;47.50;;;19.77;;
18316;SDS011;9284;52.298;21.164;2022-12-20T00:49:14;54.70;;;18.37;;
18316;SDS011;9284;52.298;21.164;2022-12-20T00:51:42;52.33;;;19.43;;
18316;SDS011;9284;52.298;21.164;2022-12-20T00:54:11;55.30;;;19.67;;
18316;SDS011;9284;52.298;21.164;2022-12-20T00:56:39;52.40;;;19.07;;
18316;SDS011;9284;52.298;21.164;2022-12-20T00:59:08;48.60;;;18.33;;
18316;SDS011;9284;52.298;21.164;2022-12-20T01:01:36;50.73;;;19.70;;
18316;SDS011;9284;52.298;21.164;2022-12-20T01:04:08;48.43;;;19.63;;
18316;SDS011;9284;52.298;21.164;2022-12-20T01:06:38;49.23;;;19.30;;
18316;SDS011;9284;52.298;21.164;2022-12-20T01:09:07;53.90;;;19.37;;
18316;SDS011;9284;52.298;21.164;2022-12-20T01:11:35;53.70;;;20.57;;
18316;SDS011;9284;52.298;21.164;2022-12-20T01:14:05;51.37;;;19.53;;
18316;SDS011;9284;52.298;21.164;2022-12-20T01:16:38;48.53;;;19.87;;
18316;SDS011;9284;52.298;21.164;2022-12-20T01:19:09;49.53;;;19.83;;
18316;SDS011;9284;52.298;21.164;2022-12-20T01:21:40;55.60;;;20.13;;
18316;SDS011;9284;52.298;21.164;2022-12-20T01:24:10;50.77;;;19.53;;
18316;SDS011;9284;52.298;21.164;2022-12-20T01:26:39;45.50;;;18.17;;
18316;SDS011;9284;52.298;21.164;2022-12-20T01:29:08;51.27;;;18.70;;
18316;SDS011;9284;52.298;21.164;2022-12-20T01:31:37;50.43;;;19.27;;
18316;SDS011;9284;52.298;21.164;2022-12-20T01:34:05;48.20;;;18.20;;
18316;SDS011;9284;52.298;21.164;2022-12-20T01:36:35;52.30;;;19.57;;
18316;SDS011;9284;52.298;21.164;2022-12-20T01:39:07;51.03;;;20.03;;
18316;SDS011;9284;52.298;21.164;2022-12-20T01:41:38;51.47;;;19.63;;
18316;SDS011;9284;52.298;21.164;2022-12-20T01:47:09;52.10;;;19.13;;
18316;SDS011;9284;52.298;21.164;2022-12-20T01:49:39;53.97;;;19.03;;
18316;SDS011;9284;52.298;21.164;2022-12-20T01:52:13;48.43;;;19.40;;
18316;SDS011;9284;52.298;21.164;2022-12-20T01:54:46;44.77;;;18.73;;
18316;SDS011;9284;52.298;21.164;2022-12-20T01:57:19;51.03;;;19.70;;
18316;SDS011;9284;52.298;21.164;2022-12-20T01:59:50;53.77;;;20.57;;
18316;SDS011;9284;52.298;21.164;2022-12-20T02:02:20;50.50;;;19.40;;
18316;SDS011;9284;52.298;21.164;2022-12-20T02:04:49;52.37;;;19.67;;
18316;SDS011;9284;52.298;21.164;2022-12-20T02:07:18;52.40;;;19.43;;
18316;SDS011;9284;52.298;21.164;2022-12-20T02:09:49;54.90;;;22.17;;
18316;SDS011;9284;52.298;21.164;2022-12-20T02:12:19;53.70;;;19.10;;
18316;SDS011;9284;52.298;21.164;2022-12-20T02:14:57;47.23;;;20.20;;
18316;SDS011;9284;52.298;21.164;2022-12-20T02:17:36;42.03;;;17.63;;
18316;SDS011;9284;52.298;21.164;2022-12-20T02:20:31;48.17;;;20.57;;
18316;SDS011;9284;52.298;21.164;2022-12-20T02:23:33;44.10;;;18.47;;
18316;SDS011;9284;52.298;21.164;2022-12-20T02:29:34;42.67;;;17.80;;
18316;SDS011;9284;52.298;21.164;2022-12-20T02:32:07;50.67;;;19.87;;
18316;SDS011;9284;52.298;21.164;2022-12-20T02:34:42;53.13;;;19.67;;
18316;SDS011;9284;52.298;21.164;2022-12-20T02:37:11;52.20;;;19.63;;
18316;SDS011;9284;52.298;21.164;2022-12-20T02:39:42;51.53;;;20.13;;
18316;SDS011;9284;52.298;21.164;2022-12-20T02:42:13;51.60;;;18.53;;
18316;SDS011;9284;52.298;21.164;2022-12-20T02:44:45;48.57;;;18.97;;
18316;SDS011;9284;52.298;21.164;2022-12-20T02:47:36;45.93;;;18.60;;
18316;SDS011;9284;52.298;21.164;2022-12-20T02:50:07;52.13;;;18.70;;
18316;SDS011;9284;52.298;21.164;2022-12-20T02:52:36;47.10;;;17.57;;
18316;SDS011;9284;52.298;21.164;2022-12-20T02:55:08;45.27;;;18.00;;
18316;SDS011;9284;52.298;21.164;2022-12-20T02:57:39;43.33;;;18.07;;
18316;SDS011;9284;52.298;21.164;2022-12-20T03:00:11;45.83;;;17.47;;
18316;SDS011;9284;52.298;21.164;2022-12-20T03:02:44;47.63;;;19.23;;
18316;SDS011;9284;52.298;21.164;2022-12-20T03:05:28;45.37;;;18.00;;
18316;SDS011;9284;52.298;21.164;2022-12-20T03:08:00;42.63;;;17.80;;
18316;SDS011;9284;52.298;21.164;2022-12-20T03:10:28;48.50;;;17.93;;
18316;SDS011;9284;52.298;21.164;2022-12-20T03:12:57;44.83;;;18.63;;
18316;SDS011;9284;52.298;21.164;2022-12-20T03:15:28;44.07;;;17.40;;
18316;SDS011;9284;52.298;21.164;2022-12-20T03:18:01;45.43;;;18.53;;
18316;SDS011;9284;52.298;21.164;2022-12-20T03:20:30;44.37;;;17.30;;
18316;SDS011;9284;52.298;21.164;2022-12-20T03:22:58;51.40;;;17.70;;
18316;SDS011;9284;52.298;21.164;2022-12-20T03:25:27;40.07;;;17.10;;
18316;SDS011;9284;52.298;21.164;2022-12-20T03:28:00;42.50;;;17.53;;
18316;SDS011;9284;52.298;21.164;2022-12-20T03:30:29;38.80;;;16.17;;
18316;SDS011;9284;52.298;21.164;2022-12-20T03:32:57;40.30;;;16.73;;
18316;SDS011;9284;52.298;21.164;2022-12-20T03:35:27;43.20;;;16.33;;
18316;SDS011;9284;52.298;21.164;2022-12-20T03:37:55;47.43;;;18.97;;
18316;SDS011;9284;52.298;21.164;2022-12-20T03:40:24;43.50;;;18.63;;
18316;SDS011;9284;52.298;21.164;2022-12-20T03:42:52;44.40;;;17.70;;
18316;SDS011;9284;52.298;21.164;2022-12-20T03:45:21;45.33;;;17.47;;
18316;SDS011;9284;52.298;21.164;2022-12-20T03:47:54;45.30;;;17.67;;
18316;SDS011;9284;52.298;21.164;2022-12-20T03:50:58;38.67;;;16.17;;
18316;SDS011;9284;52.298;21.164;2022-12-20T03:53:50;46.53;;;16.47;;
18316;SDS011;9284;52.298;21.164;2022-12-20T03:56:20;45.97;;;17.07;;
18316;SDS011;9284;52.298;21.164;2022-12-20T03:58:49;37.23;;;16.50;;
18316;SDS011;9284;52.298;21.164;2022-12-20T04:01:18;41.90;;;16.33;;
18316;SDS011;9284;52.298;21.164;2022-12-20T04:03:48;48.43;;;18.63;;
18316;SDS011;9284;52.298;21.164;2022-12-20T04:06:18;39.90;;;17.80;;
18316;SDS011;9284;52.298;21.164;2022-12-20T04:08:49;41.77;;;17.17;;
18316;SDS011;9284;52.298;21.164;2022-12-20T04:11:24;47.73;;;16.63;;
18316;SDS011;9284;52.298;21.164;2022-12-20T04:13:59;44.07;;;17.03;;
18316;SDS011;9284;52.298;21.164;2022-12-20T04:16:28;43.00;;;16.83;;
18316;SDS011;9284;52.298;21.164;2022-12-20T04:18:57;46.37;;;17.20;;
18316;SDS011;9284;52.298;21.164;2022-12-20T04:21:31;41.80;;;15.70;;
18316;SDS011;9284;52.298;21.164;2022-12-20T04:24:02;40.90;;;15.80;;
18316;SDS011;9284;52.298;21.164;2022-12-20T04:26:41;42.77;;;17.20;;
18316;SDS011;9284;52.298;21.164;2022-12-20T04:29:11;41.83;;;17.50;;
18316;SDS011;9284;52.298;21.164;2022-12-20T04:31:41;42.20;;;17.27;;
18316;SDS011;9284;52.298;21.164;2022-12-20T04:34:09;46.13;;;17.43;;
18316;SDS011;9284;52.298;21.164;2022-12-20T04:36:39;44.23;;;16.70;;
18316;SDS011;9284;52.298;21.164;2022-12-20T04:39:13;42.17;;;17.10;;
18316;SDS011;9284;52.298;21.164;2022-12-20T04:42:01;44.07;;;16.30;;
18316;SDS011;9284;52.298;21.164;2022-12-20T04:44:29;40.50;;;17.33;;
18316;SDS011;9284;52.298;21.164;2022-12-20T04:46:58;39.93;;;16.53;;
18316;SDS011;9284;52.298;21.164;2022-12-20T04:49:27;45.60;;;18.57;;
18316;SDS011;9284;52.298;21.164;2022-12-20T04:51:56;40.67;;;16.53;;
18316;SDS011;9284;52.298;21.164;2022-12-20T04:54:46;50.60;;;17.13;;
18316;SDS011;9284;52.298;21.164;2022-12-20T04:57:19;45.40;;;17.83;;
18316;SDS011;9284;52.298;21.164;2022-12-20T04:59:47;49.13;;;17.73;;
18316;SDS011;9284;52.298;21.164;2022-12-20T05:02:16;49.33;;;18.20;;
18316;SDS011;9284;52.298;21.164;2022-12-20T05:04:49;45.30;;;17.50;;
18316;SDS011;9284;52.298;21.164;2022-12-20T05:07:18;48.03;;;17.50;;
18316;SDS011;9284;52.298;21.164;2022-12-20T05:09:51;46.63;;;17.30;;
18316;SDS011;9284;52.298;21.164;2022-12-20T05:12:19;51.00;;;18.07;;
18316;SDS011;9284;52.298;21.164;2022-12-20T05:14:47;49.63;;;17.27;;
18316;SDS011;9284;52.298;21.164;2022-12-20T05:17:18;45.80;;;17.07;;
18316;SDS011;9284;52.298;21.164;2022-12-20T05:19:47;47.13;;;16.50;;
18316;SDS011;9284;52.298;21.164;2022-12-20T05:22:16;45.00;;;17.57;;
18316;SDS011;9284;52.298;21.164;2022-12-20T05:25:07;38.73;;;16.23;;
18316;SDS011;9284;52.298;21.164;2022-12-20T05:27:57;47.20;;;17.13;;
18316;SDS011;9284;52.298;21.164;2022-12-20T05:30:28;47.70;;;17.50;;
18316;SDS011;9284;52.298;21.164;2022-12-20T05:32:57;45.63;;;16.73;;
18316;SDS011;9284;52.298;21.164;2022-12-20T05:35:25;44.80;;;16.53;;
18316;SDS011;9284;52.298;21.164;2022-12-20T05:38:00;43.07;;;15.80;;
18316;SDS011;9284;52.298;21.164;2022-12-20T05:40:31;39.90;;;15.93;;
18316;SDS011;9284;52.298;21.164;2022-12-20T05:43:00;48.33;;;16.73;;
18316;SDS011;9284;52.298;21.164;2022-12-20T05:45:43;46.00;;;17.03;;
18316;SDS011;9284;52.298;21.164;2022-12-20T05:48:14;40.40;;;16.00;;
18316;SDS011;9284;52.298;21.164;2022-12-20T05:50:43;49.43;;;17.73;;
18316;SDS011;9284;52.298;21.164;2022-12-20T05:53:26;45.17;;;17.10;;
18316;SDS011;9284;52.298;21.164;2022-12-20T05:56:00;45.10;;;15.83;;
18316;SDS011;9284;52.298;21.164;2022-12-20T05:58:31;44.73;;;16.30;;
18316;SDS011;9284;52.298;21.164;2022-12-20T06:01:03;44.30;;;16.33;;
18316;SDS011;9284;52.298;21.164;2022-12-20T06:03:36;46.27;;;17.97;;
18316;SDS011;9284;52.298;21.164;2022-12-20T06:06:10;41.90;;;16.27;;
18316;SDS011;9284;52.298;21.164;2022-12-20T06:08:42;43.37;;;16.37;;
18316;SDS011;9284;52.298;21.164;2022-12-20T06:11:25;44.77;;;16.70;;
18316;SDS011;9284;52.298;21.164;2022-12-20T06:14:05;49.17;;;17.67;;
18316;SDS011;9284;52.298;21.164;2022-12-20T06:16:37;38.37;;;16.63;;
18316;SDS011;9284;52.298;21.164;2022-12-20T06:19:08;41.53;;;15.83;;
18316;SDS011;9284;52.298;21.164;2022-12-20T06:21:44;41.90;;;15.40;;
18316;SDS011;9284;52.298;21.164;2022-12-20T06:24:15;40.17;;;15.93;;
18316;SDS011;9284;52.298;21.164;2022-12-20T06:26:45;38.67;;;15.30;;
18316;SDS011;9284;52.298;21.164;2022-12-20T06:29:14;42.83;;;16.87;;
18316;SDS011;9284;52.298;21.164;2022-12-20T06:31:49;40.33;;;15.00;;
18316;SDS011;9284;52.298;21.164;2022-12-20T06:34:17;41.43;;;15.87;;
18316;SDS011;9284;52.298;21.164;2022-12-20T06:36:47;51.50;;;17.03;;
18316;SDS011;9284;52.298;21.164;2022-12-20T06:39:19;44.70;;;16.77;;
18316;SDS011;9284;52.298;21.164;2022-12-20T06:41:58;50.23;;;17.23;;
18316;SDS011;9284;52.298;21.164;2022-12-20T06:44:27;53.43;;;17.90;;
18316;SDS011;9284;52.298;21.164;2022-12-20T06:46:55;60.77;;;18.63;;
18316;SDS011;9284;52.298;21.164;2022-12-20T06:49:23;50.93;;;17.77;;
18316;SDS011;9284;52.298;21.164;2022-12-20T06:51:52;51.40;;;18.63;;
18316;SDS011;9284;52.298;21.164;2022-12-20T06:54:26;58.53;;;18.10;;
18316;SDS011;9284;52.298;21.164;2022-12-20T06:56:54;44.27;;;15.97;;
18316;SDS011;9284;52.298;21.164;2022-12-20T06:59:24;48.40;;;17.90;;
18316;SDS011;9284;52.298;21.164;2022-12-20T07:01:53;46.90;;;17.43;;
18316;SDS011;9284;52.298;21.164;2022-12-20T07:04:21;44.43;;;17.80;;
18316;SDS011;9284;52.298;21.164;2022-12-20T07:06:49;56.13;;;18.03;;
18316;SDS011;9284;52.298;21.164;2022-12-20T07:09:18;62.60;;;18.93;;
18316;SDS011;9284;52.298;21.164;2022-12-20T07:11:46;69.50;;;21.43;;
18316;SDS011;9284;52.298;21.164;2022-12-20T07:14:14;76.53;;;22.10;;
18316;SDS011;9284;52.298;21.164;2022-12-20T07:16:44;62.63;;;20.50;;
18316;SDS011;9284;52.298;21.164;2022-12-20T07:19:12;49.57;;;17.90;;
18316;SDS011;9284;52.298;21.164;2022-12-20T07:21:41;47.80;;;17.00;;
18316;SDS011;9284;52.298;21.164;2022-12-20T07:24:09;53.97;;;18.63;;
18316;SDS011;9284;52.298;21.164;2022-12-20T07:26:37;59.67;;;19.83;;
18316;SDS011;9284;52.298;21.164;2022-12-20T07:29:05;46.03;;;16.27;;
18316;SDS011;9284;52.298;21.164;2022-12-20T07:31:40;59.00;;;18.80;;
18316;SDS011;9284;52.298;21.164;2022-12-20T07:34:10;54.80;;;18.10;;
18316;SDS011;9284;52.298;21.164;2022-12-20T07:36:39;45.23;;;16.60;;
18316;SDS011;9284;52.298;21.164;2022-12-20T07:39:07;43.00;;;16.97;;
18316;SDS011;9284;52.298;21.164;2022-12-20T07:41:35;60.53;;;17.37;;
18316;SDS011;9284;52.298;21.164;2022-12-20T07:44:03;45.63;;;15.17;;
18316;SDS011;9284;52.298;21.164;2022-12-20T07:46:32;41.60;;;16.53;;
18316;SDS011;9284;52.298;21.164;2022-12-20T07:49:01;43.37;;;15.97;;
18316;SDS011;9284;52.298;21.164;2022-12-20T07:51:31;37.17;;;14.50;;
18316;SDS011;9284;52.298;21.164;2022-12-20T07:54:04;43.03;;;15.83;;
18316;SDS011;9284;52.298;21.164;2022-12-20T07:56:36;51.67;;;17.43;;
18316;SDS011;9284;52.298;21.164;2022-12-20T07:59:07;53.27;;;16.90;;
18316;SDS011;9284;52.298;21.164;2022-12-20T08:01:37;54.80;;;17.97;;
18316;SDS011;9284;52.298;21.164;2022-12-20T08:04:09;43.97;;;16.83;;
18316;SDS011;9284;52.298;21.164;2022-12-20T08:06:41;49.13;;;18.47;;
18316;SDS011;9284;52.298;21.164;2022-12-20T08:09:10;45.07;;;16.70;;
18316;SDS011;9284;52.298;21.164;2022-12-20T08:11:40;49.40;;;17.83;;
18316;SDS011;9284;52.298;21.164;2022-12-20T08:14:11;47.80;;;18.30;;
18316;SDS011;9284;52.298;21.164;2022-12-20T08:16:40;51.03;;;17.47;;
18316;SDS011;9284;52.298;21.164;2022-12-20T08:19:09;46.33;;;16.67;;
18316;SDS011;9284;52.298;21.164;2022-12-20T08:21:37;42.70;;;17.13;;
18316;SDS011;9284;52.298;21.164;2022-12-20T08:24:07;43.80;;;16.47;;
18316;SDS011;9284;52.298;21.164;2022-12-20T08:26:36;45.37;;;17.17;;
18316;SDS011;9284;52.298;21.164;2022-12-20T08:29:05;44.97;;;17.03;;
18316;SDS011;9284;52.298;21.164;2022-12-20T08:31:35;43.30;;;17.63;;
18316;SDS011;9284;52.298;21.164;2022-12-20T08:34:07;42.80;;;16.80;;
18316;SDS011;9284;52.298;21.164;2022-12-20T08:36:36;47.40;;;17.40;;
18316;SDS011;9284;52.298;21.164;2022-12-20T08:39:04;42.60;;;16.13;;
18316;SDS011;9284;52.298;21.164;2022-12-20T08:41:34;42.23;;;16.93;;
18316;SDS011;9284;52.298;21.164;2022-12-20T08:44:03;44.87;;;16.17;;
18316;SDS011;9284;52.298;21.164;2022-12-20T08:46:31;41.50;;;16.60;;
18316;SDS011;9284;52.298;21.164;2022-12-20T08:49:00;46.17;;;15.90;;
18316;SDS011;9284;52.298;21.164;2022-12-20T08:51:28;43.63;;;16.77;;
18316;SDS011;9284;52.298;21.164;2022-12-20T08:53:56;44.67;;;16.90;;
18316;SDS011;9284;52.298;21.164;2022-12-20T08:56:26;41.90;;;16.60;;
18316;SDS011;9284;52.298;21.164;2022-12-20T08:58:54;50.63;;;18.70;;
18316;SDS011;9284;52.298;21.164;2022-12-20T09:01:22;48.80;;;17.60;;
18316;SDS011;9284;52.298;21.164;2022-12-20T09:03:52;50.90;;;19.10;;
18316;SDS011;9284;52.298;21.164;2022-12-20T09:06:21;45.03;;;17.07;;
18316;SDS011;9284;52.298;21.164;2022-12-20T09:08:50;45.67;;;17.13;;
18316;SDS011;9284;52.298;21.164;2022-12-20T09:11:20;44.93;;;17.73;;
18316;SDS011;9284;52.298;21.164;2022-12-20T09:13:52;50.17;;;17.77;;
18316;SDS011;9284;52.298;21.164;2022-12-20T09:16:23;45.67;;;17.17;;
18316;SDS011;9284;52.298;21.164;2022-12-20T09:18:53;44.87;;;17.37;;
18316;SDS011;9284;52.298;21.164;2022-12-20T09:21:30;45.70;;;17.07;;
18316;SDS011;9284;52.298;21.164;2022-12-20T09:23:59;41.00;;;15.87;;
18316;SDS011;9284;52.298;21.164;2022-12-20T09:26:27;41.77;;;15.70;;
18316;SDS011;9284;52.298;21.164;2022-12-20T09:28:57;35.17;;;14.90;;
18316;SDS011;9284;52.298;21.164;2022-12-20T09:31:27;34.40;;;15.43;;
18316;SDS011;9284;52.298;21.164;2022-12-20T09:33:56;38.27;;;16.37;;
18316;SDS011;9284;52.298;21.164;2022-12-20T09:36:26;34.50;;;15.47;;
18316;SDS011;9284;52.298;21.164;2022-12-20T09:38:55;38.00;;;15.40;;
18316;SDS011;9284;52.298;21.164;2022-12-20T09:41:25;32.17;;;14.03;;
18316;SDS011;9284;52.298;21.164;2022-12-20T09:44:02;37.20;;;15.37;;
18316;SDS011;9284;52.298;21.164;2022-12-20T09:46:32;36.77;;;16.17;;
18316;SDS011;9284;52.298;21.164;2022-12-20T09:49:01;38.13;;;14.63;;
18316;SDS011;9284;52.298;21.164;2022-12-20T09:51:34;35.90;;;14.10;;
18316;SDS011;9284;52.298;21.164;2022-12-20T09:54:14;38.10;;;14.97;;
18316;SDS011;9284;52.298;21.164;2022-12-20T09:56:49;33.77;;;15.07;;
18316;SDS011;9284;52.298;21.164;2022-12-20T09:59:26;34.73;;;14.27;;
18316;SDS011;9284;52.298;21.164;2022-12-20T10:02:01;38.00;;;15.10;;
18316;SDS011;9284;52.298;21.164;2022-12-20T10:04:55;36.33;;;14.53;;
18316;SDS011;9284;52.298;21.164;2022-12-20T10:07:28;32.93;;;14.70;;
18316;SDS011;9284;52.298;21.164;2022-12-20T10:10:09;33.13;;;14.20;;
18316;SDS011;9284;52.298;21.164;2022-12-20T10:13:00;35.10;;;15.33;;
18316;SDS011;9284;52.298;21.164;2022-12-20T10:15:39;30.70;;;14.77;;
18316;SDS011;9284;52.298;21.164;2022-12-20T10:18:17;33.27;;;14.07;;
18316;SDS011;9284;52.298;21.164;2022-12-20T10:20:56;34.83;;;14.53;;
18316;SDS011;9284;52.298;21.164;2022-12-20T10:23:29;33.20;;;14.40;;
18316;SDS011;9284;52.298;21.164;2022-12-20T10:26:04;31.17;;;14.53;;
18316;SDS011;9284;52.298;21.164;2022-12-20T10:28:36;36.93;;;15.87;;
18316;SDS011;9284;52.298;21.164;2022-12-20T10:31:09;31.53;;;13.73;;
18316;SDS011;9284;52.298;21.164;2022-12-20T10:33:40;36.63;;;15.03;;
18316;SDS011;9284;52.298;21.164;2022-12-20T10:36:17;33.50;;;15.57;;
18316;SDS011;9284;52.298;21.164;2022-12-20T10:38:51;36.03;;;14.90;;
18316;SDS011;9284;52.298;21.164;2022-12-20T10:41:22;36.50;;;15.50;;
18316;SDS011;9284;52.298;21.164;2022-12-20T10:43:52;33.40;;;14.27;;
18316;SDS011;9284;52.298;21.164;2022-12-20T10:46:34;40.83;;;16.27;;
18316;SDS011;9284;52.298;21.164;2022-12-20T10:49:20;34.90;;;15.30;;
18316;SDS011;9284;52.298;21.164;2022-12-20T10:51:55;36.33;;;15.27;;
18316;SDS011;9284;52.298;21.164;2022-12-20T10:54:28;39.13;;;15.40;;
18316;SDS011;9284;52.298;21.164;2022-12-20T10:56:59;34.57;;;14.53;;
18316;SDS011;9284;52.298;21.164;2022-12-20T10:59:32;38.17;;;16.23;;
18316;SDS011;9284;52.298;21.164;2022-12-20T11:02:19;37.23;;;15.90;;
18316;SDS011;9284;52.298;21.164;2022-12-20T11:04:57;42.30;;;15.53;;
18316;SDS011;9284;52.298;21.164;2022-12-20T11:07:28;34.43;;;15.07;;
18316;SDS011;9284;52.298;21.164;2022-12-20T11:10:00;39.07;;;16.30;;
18316;SDS011;9284;52.298;21.164;2022-12-20T11:12:30;43.03;;;16.73;;
18316;SDS011;9284;52.298;21.164;2022-12-20T11:15:06;35.50;;;15.57;;
18316;SDS011;9284;52.298;21.164;2022-12-20T11:17:39;37.13;;;15.33;;
18316;SDS011;9284;52.298;21.164;2022-12-20T11:20:20;43.83;;;17.03;;
18316;SDS011;9284;52.298;21.164;2022-12-20T11:22:58;37.43;;;16.27;;
18316;SDS011;9284;52.298;21.164;2022-12-20T11:25:45;34.90;;;15.30;;
18316;SDS011;9284;52.298;21.164;2022-12-20T11:28:28;38.43;;;15.83;;
18316;SDS011;9284;52.298;21.164;2022-12-20T11:31:10;35.30;;;16.17;;
18316;SDS011;9284;52.298;21.164;2022-12-20T11:33:51;39.30;;;16.93;;
18316;SDS011;9284;52.298;21.164;2022-12-20T11:36:33;37.90;;;16.20;;
18316;SDS011;9284;52.298;21.164;2022-12-20T11:39:26;45.93;;;17.47;;
18316;SDS011;9284;52.298;21.164;2022-12-20T11:42:02;37.40;;;16.50;;
18316;SDS011;9284;52.298;21.164;2022-12-20T11:44:42;40.27;;;17.53;;
18316;SDS011;9284;52.298;21.164;2022-12-20T11:47:38;42.77;;;16.90;;
18316;SDS011;9284;52.298;21.164;2022-12-20T11:50:24;34.10;;;15.57;;
18316;SDS011;9284;52.298;21.164;2022-12-20T11:53:17;38.83;;;16.47;;
18316;SDS011;9284;52.298;21.164;2022-12-20T11:55:52;43.13;;;17.67;;
18316;SDS011;9284;52.298;21.164;2022-12-20T11:58:25;39.17;;;17.10;;
18316;SDS011;9284;52.298;21.164;2022-12-20T12:01:03;42.50;;;16.80;;
18316;SDS011;9284;52.298;21.164;2022-12-20T12:03:40;38.67;;;16.60;;
18316;SDS011;9284;52.298;21.164;2022-12-20T12:06:16;41.03;;;16.93;;
18316;SDS011;9284;52.298;21.164;2022-12-20T12:08:50;39.33;;;17.10;;
18316;SDS011;9284;52.298;21.164;2022-12-20T12:11:23;45.87;;;17.20;;
18316;SDS011;9284;52.298;21.164;2022-12-20T12:14:19;45.93;;;17.07;;
18316;SDS011;9284;52.298;21.164;2022-12-20T12:16:57;41.93;;;17.27;;
18316;SDS011;9284;52.298;21.164;2022-12-20T12:19:32;43.73;;;18.10;;
18316;SDS011;9284;52.298;21.164;2022-12-20T12:22:18;39.40;;;17.17;;
18316;SDS011;9284;52.298;21.164;2022-12-20T12:24:51;45.30;;;16.93;;
18316;SDS011;9284;52.298;21.164;2022-12-20T12:27:26;36.33;;;15.83;;
18316;SDS011;9284;52.298;21.164;2022-12-20T12:29:56;43.40;;;17.97;;
18316;SDS011;9284;52.298;21.164;2022-12-20T12:32:30;38.40;;;17.23;;
18316;SDS011;9284;52.298;21.164;2022-12-20T12:35:13;39.23;;;17.20;;
18316;SDS011;9284;52.298;21.164;2022-12-20T12:37:56;42.30;;;16.87;;
18316;SDS011;9284;52.298;21.164;2022-12-20T12:40:49;38.80;;;16.73;;
18316;SDS011;9284;52.298;21.164;2022-12-20T12:43:43;41.17;;;16.63;;
18316;SDS011;9284;52.298;21.164;2022-12-20T12:46:16;40.87;;;17.23;;
18316;SDS011;9284;52.298;21.164;2022-12-20T12:48:56;42.10;;;16.83;;
18316;SDS011;9284;52.298;21.164;2022-12-20T12:51:28;40.73;;;16.27;;
18316;SDS011;9284;52.298;21.164;2022-12-20T12:54:17;38.23;;;17.07;;
18316;SDS011;9284;52.298;21.164;2022-12-20T12:57:02;42.43;;;16.70;;
18316;SDS011;9284;52.298;21.164;2022-12-20T12:59:41;33.63;;;15.10;;
18316;SDS011;9284;52.298;21.164;2022-12-20T13:02:33;41.50;;;16.60;;
18316;SDS011;9284;52.298;21.164;2022-12-20T13:07:59;36.70;;;16.50;;
18316;SDS011;9284;52.298;21.164;2022-12-20T13:13:34;37.93;;;16.27;;
18316;SDS011;9284;52.298;21.164;2022-12-20T13:16:09;39.43;;;16.90;;
18316;SDS011;9284;52.298;21.164;2022-12-20T13:19:01;44.65;;;18.10;;
18316;SDS011;9284;52.298;21.164;2022-12-20T13:21:39;51.13;;;18.37;;
18316;SDS011;9284;52.298;21.164;2022-12-20T13:27:22;50.30;;;18.10;;
18316;SDS011;9284;52.298;21.164;2022-12-20T13:29:58;42.03;;;17.67;;
18316;SDS011;9284;52.298;21.164;2022-12-20T13:36:00;42.20;;;18.73;;
18316;SDS011;9284;52.298;21.164;2022-12-20T13:41:36;42.67;;;18.60;;
18316;SDS011;9284;52.298;21.164;2022-12-20T13:44:09;43.37;;;19.27;;
18316;SDS011;9284;52.298;21.164;2022-12-20T13:46:54;38.80;;;18.20;;
18316;SDS011;9284;52.298;21.164;2022-12-20T13:49:28;42.17;;;17.97;;
18316;SDS011;9284;52.298;21.164;2022-12-20T13:54:54;44.13;;;18.07;;
18316;SDS011;9284;52.298;21.164;2022-12-20T13:57:28;42.40;;;18.57;;
18316;SDS011;9284;52.298;21.164;2022-12-20T13:59:58;43.37;;;17.30;;
18316;SDS011;9284;52.298;21.164;2022-12-20T14:02:38;45.37;;;19.10;;
18316;SDS011;9284;52.298;21.164;2022-12-20T14:05:14;52.00;;;19.27;;
18316;SDS011;9284;52.298;21.164;2022-12-20T14:07:55;54.90;;;21.30;;
18316;SDS011;9284;52.298;21.164;2022-12-20T14:10:30;49.33;;;18.10;;
18316;SDS011;9284;52.298;21.164;2022-12-20T14:13:01;45.77;;;18.07;;
18316;SDS011;9284;52.298;21.164;2022-12-20T14:15:32;42.27;;;17.37;;
18316;SDS011;9284;52.298;21.164;2022-12-20T14:18:06;40.60;;;17.00;;
18316;SDS011;9284;52.298;21.164;2022-12-20T14:20:46;39.83;;;17.30;;
18316;SDS011;9284;52.298;21.164;2022-12-20T14:23:18;36.43;;;17.23;;
18316;SDS011;9284;52.298;21.164;2022-12-20T14:25:49;47.10;;;19.60;;
18316;SDS011;9284;52.298;21.164;2022-12-20T14:28:26;45.40;;;17.67;;
18316;SDS011;9284;52.298;21.164;2022-12-20T14:30:59;41.27;;;17.80;;
18316;SDS011;9284;52.298;21.164;2022-12-20T14:33:32;51.93;;;20.80;;
18316;SDS011;9284;52.298;21.164;2022-12-20T14:36:06;53.60;;;23.30;;
18316;SDS011;9284;52.298;21.164;2022-12-20T14:38:36;58.10;;;27.20;;
18316;SDS011;9284;52.298;21.164;2022-12-20T14:44:02;71.47;;;27.90;;
18316;SDS011;9284;52.298;21.164;2022-12-20T14:46:46;69.23;;;30.17;;
18316;SDS011;9284;52.298;21.164;2022-12-20T14:49:20;50.73;;;22.37;;
18316;SDS011;9284;52.298;21.164;2022-12-20T14:52:02;78.67;;;32.83;;
18316;SDS011;9284;52.298;21.164;2022-12-20T14:54:33;73.87;;;29.23;;
18316;SDS011;9284;52.298;21.164;2022-12-20T14:57:23;70.10;;;28.47;;
18316;SDS011;9284;52.298;21.164;2022-12-20T14:59:56;65.30;;;27.93;;
18316;SDS011;9284;52.298;21.164;2022-12-20T15:02:32;76.47;;;29.83;;
18316;SDS011;9284;52.298;21.164;2022-12-20T15:05:08;63.57;;;26.80;;
18316;SDS011;9284;52.298;21.164;2022-12-20T15:07:51;74.77;;;29.93;;
18316;SDS011;9284;52.298;21.164;2022-12-20T15:10:20;52.97;;;22.57;;
18316;SDS011;9284;52.298;21.164;2022-12-20T15:12:49;57.30;;;21.97;;
18316;SDS011;9284;52.298;21.164;2022-12-20T15:15:17;61.87;;;25.13;;
18316;SDS011;9284;52.298;21.164;2022-12-20T15:18:00;65.80;;;26.37;;
18316;SDS011;9284;52.298;21.164;2022-12-20T15:20:30;67.47;;;26.53;;
18316;SDS011;9284;52.298;21.164;2022-12-20T15:22:58;52.40;;;24.30;;
18316;SDS011;9284;52.298;21.164;2022-12-20T15:25:29;51.33;;;23.23;;